Time;durP1;ratioP1;P1;durP2;ratioP2;P2;SDS_P1;SDS_P2;PMS_P1;PMS_P2;Temp;Humidity;BMP_temperature;BMP_pressure;BME280_temperature;BME280_humidity;BME280_pressure;Samples;Min_cycle;Max_cycle;Signal;HPM_P1;HPM_P2
2024/01/17 00:01:14;;;;;;;11.98;5.70;;;;;;;-0.55;100.00;99753.34;6274190;28;20057;-68
2024/01/17 00:04:15;;;;;;;15.80;7.43;;;;;;;-0.56;100.00;99751.66;6275684;28;20081;-68
2024/01/17 00:07:16;;;;;;;11.00;6.03;;;;;;;-0.62;100.00;99749.22;6275636;28;20457;-68
2024/01/17 00:10:17;;;;;;;14.57;5.90;;;;;;;-0.54;100.00;99747.34;6275003;28;20061;-68
2024/01/17 00:13:18;;;;;;;15.13;6.07;;;;;;;-0.60;100.00;99739.78;6275920;28;20067;-69
2024/01/17 00:16:22;;;;;;;17.23;6.88;;;;;;;-0.58;100.00;99738.03;6275960;28;20471;-69
2024/01/17 00:19:23;;;;;;;11.68;5.95;;;;;;;-0.52;100.00;99742.19;6275824;28;20404;-73
2024/01/17 00:22:24;;;;;;;13.18;6.45;;;;;;;-0.52;100.00;99732.78;6275849;28;20052;-74
2024/01/17 00:25:25;;;;;;;12.18;5.72;;;;;;;-0.44;100.00;99723.19;6275752;28;20056;-73
2024/01/17 00:28:26;;;;;;;12.52;6.68;;;;;;;-0.42;100.00;99723.19;6275699;28;20052;-73
2024/01/17 00:31:27;;;;;;;15.25;6.85;;;;;;;-0.37;100.00;99730.75;6274347;28;20079;-73
2024/01/17 00:34:27;;;;;;;12.63;6.63;;;;;;;-0.42;100.00;99728.31;6275466;28;20074;-73
2024/01/17 00:37:28;;;;;;;11.25;5.85;;;;;;;-0.41;100.00;99730.00;6275477;28;20135;-73
2024/01/17 00:40:30;;;;;;;11.38;5.68;;;;;;;-0.47;100.00;99727.56;6274976;28;20376;-74
2024/01/17 00:43:32;;;;;;;16.42;6.97;;;;;;;-0.49;100.00;99726.75;6275341;28;20073;-73
2024/01/17 00:46:33;;;;;;;11.68;6.75;;;;;;;-0.46;100.00;99719.81;6274098;28;20059;-74
2024/01/17 00:49:35;;;;;;;14.02;6.88;;;;;;;-0.43;100.00;99727.47;6275310;28;20049;-73
2024/01/17 00:52:35;;;;;;;8.18;5.63;;;;;;;-0.43;100.00;99726.63;6275352;28;20060;-73
2024/01/17 00:55:36;;;;;;;8.65;5.38;;;;;;;-0.49;100.00;99727.59;6274327;28;20049;-73
2024/01/17 00:58:37;;;;;;;12.95;6.97;;;;;;;-0.45;100.00;99724.09;6274916;28;20049;-73
2024/01/17 01:01:38;;;;;;;13.10;6.60;;;;;;;-0.44;100.00;99718.06;6273476;28;20053;-73
2024/01/17 01:04:39;;;;;;;28.63;12.15;;;;;;;-0.47;100.00;99700.22;6251246;28;20056;-74
2024/01/17 01:07:39;;;;;;;22.23;11.48;;;;;;;-0.44;100.00;99704.41;6249418;28;20056;-74
2024/01/17 01:10:40;;;;;;;23.10;11.80;;;;;;;-0.41;100.00;99701.81;6248874;28;20550;-74
2024/01/17 01:13:41;;;;;;;17.45;10.23;;;;;;;-0.45;100.00;99701.03;6249751;28;20058;-73
2024/01/17 01:16:42;;;;;;;13.63;8.82;;;;;;;-0.44;100.00;99684.75;6249853;28;20103;-74
2024/01/17 01:19:43;;;;;;;18.38;9.45;;;;;;;-0.36;100.00;99692.28;6249430;28;20465;-74
2024/01/17 01:22:44;;;;;;;19.65;8.65;;;;;;;-0.41;100.00;99689.81;6273021;28;20136;-73
2024/01/17 01:25:47;;;;;;;12.77;6.07;;;;;;;-0.41;100.00;99689.81;6274156;28;20049;-73
2024/01/17 01:28:47;;;;;;;14.73;6.40;;;;;;;-0.38;100.00;99686.34;6273813;28;20044;-74
2024/01/17 01:31:48;;;;;;;13.20;6.65;;;;;;;-0.36;100.00;99684.59;6274269;28;20472;-73
2024/01/17 01:34:49;;;;;;;10.43;5.90;;;;;;;-0.32;100.00;99680.25;6272696;28;20044;-73
2024/01/17 01:37:52;;;;;;;14.45;7.32;;;;;;;-0.32;100.00;99672.56;6273801;28;20135;-73
2024/01/17 01:40:53;;;;;;;8.80;5.85;;;;;;;-0.41;100.00;99674.44;6272500;28;20480;-74
2024/01/17 01:43:54;;;;;;;9.70;4.63;;;;;;;-0.36;100.00;99670.94;6273769;28;20059;-74
2024/01/17 01:46:56;;;;;;;16.25;5.70;;;;;;;-0.28;100.00;99671.59;6272622;28;20049;-73
2024/01/17 01:49:57;;;;;;;10.88;5.63;;;;;;;-0.30;100.00;99671.63;6273076;28;20057;-74
2024/01/17 01:52:58;;;;;;;9.38;4.72;;;;;;;-0.34;100.00;99662.31;6270852;28;20055;-74
2024/01/17 01:55:59;;;;;;;8.07;4.60;;;;;;;-0.26;100.00;99669.84;6273160;28;20128;-73
2024/01/17 01:59:02;;;;;;;10.73;6.05;;;;;;;-0.25;100.00;99668.97;6272419;28;20052;-73
2024/01/17 02:02:04;;;;;;;11.95;6.13;;;;;;;-0.24;100.00;99668.09;6273166;28;20062;-68
2024/01/17 02:05:05;;;;;;;;;;;;;;;-0.18;100.00;99662.00;6272748;28;20044;-68
2024/01/17 02:08:06;;;;;;;6.80;3.83;;;;;;;-0.26;100.00;99673.25;6272770;28;19932;-69
2024/01/17 02:11:07;;;;;;;9.05;4.20;;;;;;;-0.31;100.00;99663.97;6273178;28;20100;-69
2024/01/17 02:14:12;;;;;;;8.93;5.25;;;;;;;-0.30;100.00;99663.09;6271679;28;20410;-68
2024/01/17 02:17:13;;;;;;;9.00;5.00;;;;;;;-0.29;100.00;99662.22;6272882;28;20107;-74
2024/01/17 02:20:14;;;;;;;8.82;5.03;;;;;;;-0.31;100.00;99669.09;6272972;28;20467;-73
2024/01/17 02:23:25;;;;;;;6.10;3.75;;;;;;;-0.30;100.00;99665.66;6271512;28;20099;-69
2024/01/17 02:26:26;;;;;;;8.65;5.00;;;;;;;-0.35;100.00;99672.59;6272812;28;20052;-68
2024/01/17 02:29:28;;;;;;;9.65;4.18;;;;;;;-0.39;100.00;99671.00;6272689;28;20056;-68
2024/01/17 02:32:29;;;;;;;7.20;3.83;;;;;;;-0.33;100.00;99670.84;6272072;28;20131;-69
2024/01/17 02:35:32;;;;;;;9.52;5.15;;;;;;;-0.33;100.00;99668.28;6271620;28;20055;-68
2024/01/17 02:38:33;;;;;;;8.13;3.60;;;;;;;-0.50;100.00;99663.53;6270628;28;20048;-68
2024/01/17 02:41:33;;;;;;;12.85;6.68;;;;;;;-0.46;100.00;99655.75;6270469;28;20048;-68
2024/01/17 02:44:34;;;;;;;9.18;5.10;;;;;;;-0.45;100.00;99648.91;6270258;28;20045;-68
2024/01/17 02:47:36;;;;;;;10.23;5.07;;;;;;;-0.50;100.00;99646.44;6270135;28;20044;-68
2024/01/17 02:50:39;;;;;;;9.43;4.60;;;;;;;-0.64;100.00;99646.75;6271403;28;20061;-68
2024/01/17 02:53:39;;;;;;;8.80;4.65;;;;;;;-0.65;100.00;99645.06;6271471;28;20122;-68
2024/01/17 02:56:40;;;;;;;11.85;5.10;;;;;;;-0.70;100.00;99643.47;6269994;28;20049;-68
2024/01/17 02:59:42;;;;;;;4.80;3.38;;;;;;;-0.75;100.00;99637.63;6270238;28;20059;-68
2024/01/17 03:02:42;;;;;;;9.57;4.68;;;;;;;-0.77;100.00;99645.31;6271008;28;20052;-68
2024/01/17 03:05:46;;;;;;;7.68;4.38;;;;;;;-0.77;100.00;99639.38;6271187;28;20053;-69
2024/01/17 03:08:47;;;;;;;10.82;4.85;;;;;;;-0.80;100.00;99632.59;6270669;28;20384;-73
2024/01/17 03:11:48;;;;;;;8.98;4.63;;;;;;;-0.84;100.00;99638.66;6270100;28;20057;-73
2024/01/17 03:14:48;;;;;;;10.70;4.65;;;;;;;-0.87;100.00;99639.53;6270923;28;20057;-74
2024/01/17 03:17:52;;;;;;;7.63;4.60;;;;;;;-0.86;100.00;99637.84;6270953;28;20497;-73
2024/01/17 03:20:53;;;;;;;9.55;4.53;;;;;;;-0.92;100.00;99630.28;6269675;28;20053;-74
2024/01/17 03:23:54;;;;;;;6.03;3.97;;;;;;;-0.93;100.00;99624.31;6271307;28;20500;-73
2024/01/17 03:26:55;;;;;;;7.00;4.17;;;;;;;-0.91;100.00;99624.28;6271043;28;20048;-73
2024/01/17 03:29:56;;;;;;;7.05;3.72;;;;;;;-0.90;100.00;99623.41;6269704;28;20052;-73
2024/01/17 03:32:57;;;;;;;10.75;4.70;;;;;;;-0.92;100.00;99620.88;6271059;28;20103;-73
2024/01/17 03:35:58;;;;;;;9.25;4.70;;;;;;;-1.04;100.00;99614.28;6270452;28;20053;-73
2024/01/17 03:38:58;;;;;;;8.30;4.63;;;;;;;-1.05;100.00;99610.06;6268768;28;20052;-73
2024/01/17 03:42:02;;;;;;;7.70;5.03;;;;;;;-1.05;100.00;99616.88;6269276;28;20049;-73
2024/01/17 03:45:03;;;;;;;11.98;5.25;;;;;;;-1.13;99.60;99604.25;6270210;28;20044;-73
2024/01/17 03:48:06;;;;;;;10.95;5.80;;;;;;;-1.21;98.63;99601.00;6270629;28;20049;-73
2024/01/17 03:51:07;;;;;;;12.20;6.32;;;;;;;-1.29;99.70;99590.91;6269579;28;20511;-73
2024/01/17 03:54:08;;;;;;;8.07;4.55;;;;;;;-1.26;100.00;99597.66;6269528;28;20052;-73
2024/01/17 03:57:08;;;;;;;6.70;3.42;;;;;;;-1.29;100.00;99583.22;6270415;28;20049;-69
2024/01/17 04:00:10;;;;;;;8.43;4.97;;;;;;;-1.30;100.00;99591.75;6269372;28;20041;-68
2024/01/17 04:03:14;;;;;;;13.00;5.63;;;;;;;-1.34;99.99;99595.28;6270084;28;20053;-68
2024/01/17 04:06:15;;;;;;;7.57;4.20;;;;;;;-1.40;100.00;99587.72;6270393;28;20502;-68
2024/01/17 04:09:16;;;;;;;8.93;4.00;;;;;;;-1.44;99.69;99591.22;6269949;28;20142;-68
2024/01/17 04:12:18;;;;;;;7.60;4.32;;;;;;;-1.54;100.00;99577.75;6270711;28;20061;-69
2024/01/17 04:15:19;;;;;;;9.50;5.63;;;;;;;-1.56;100.00;99587.16;6271639;28;20076;-68
2024/01/17 04:18:20;;;;;;;7.65;4.57;;;;;;;-1.54;100.00;99582.03;6273752;28;20063;-68
2024/01/17 04:21:21;;;;;;;6.57;4.07;;;;;;;-1.54;100.00;99584.59;6272077;28;20111;-69
2024/01/17 04:24:22;;;;;;;7.18;4.28;;;;;;;-1.61;100.00;99576.16;6272688;28;20499;-69
2024/01/17 04:27:23;;;;;;;6.72;4.55;;;;;;;-1.59;100.00;99579.53;6274036;28;20053;-68
2024/01/17 04:30:24;;;;;;;8.02;4.28;;;;;;;-1.62;100.00;99575.34;6271048;28;20053;-68
2024/01/17 04:33:25;;;;;;;7.43;4.50;;;;;;;-1.68;100.00;99562.66;6273502;28;20467;-68
2024/01/17 04:36:29;;;;;;;6.78;4.35;;;;;;;-1.69;100.00;99563.53;6274555;28;20059;-68
2024/01/17 04:39:30;;;;;;;8.85;4.65;;;;;;;-1.75;100.00;99555.13;6273796;28;20535;-68
2024/01/17 04:42:33;;;;;;;9.82;4.15;;;;;;;-1.77;100.00;99551.75;6273828;28;20127;-68
2024/01/17 04:45:34;;;;;;;8.77;5.25;;;;;;;-1.74;100.00;99549.97;6274019;28;20140;-68
2024/01/17 04:48:39;;;;;;;6.47;3.63;;;;;;;-1.72;100.00;99553.34;6271997;28;20049;-68
2024/01/17 04:51:41;;;;;;;5.63;2.92;;;;;;;-1.74;100.00;99552.53;6274370;28;20049;-68
2024/01/17 04:54:42;;;;;;;;;;;;;;;-1.71;100.00;99546.50;6274282;28;20060;-68
2024/01/17 04:57:43;;;;;;;6.15;3.45;;;;;;;-1.71;100.00;99554.19;6274126;28;20302;-73
2024/01/17 05:00:50;;;;;;;9.55;5.60;;;;;;;-1.80;100.00;99547.53;6272788;28;20089;-73
2024/01/17 05:03:51;;;;;;;9.45;4.78;;;;;;;-1.72;100.00;99544.84;6273411;28;20045;-73
2024/01/17 05:06:52;;;;;;;6.85;4.15;;;;;;;-1.68;100.00;99531.13;6256622;28;20111;-73
2024/01/17 05:09:52;;;;;;;5.22;2.70;;;;;;;-1.83;100.00;99535.66;6261930;28;20037;-73
2024/01/17 05:12:53;;;;;;;11.45;3.55;;;;;;;-1.70;100.00;99531.13;6272208;28;20130;-73
2024/01/17 05:15:54;;;;;;;5.03;3.08;;;;;;;-1.68;100.00;99526.00;6273271;28;20045;-74
2024/01/17 05:18:55;;;;;;;4.78;3.08;;;;;;;-1.68;100.00;99531.97;6273311;28;20087;-73
2024/01/17 05:21:56;;;;;;;6.45;3.40;;;;;;;-1.71;100.00;99524.34;6273485;28;20056;-73
2024/01/17 05:24:57;;;;;;;4.38;3.38;;;;;;;-1.70;100.00;99523.47;6272122;28;20057;-69
2024/01/17 05:27:57;;;;;;;10.00;4.82;;;;;;;-1.72;100.00;99520.09;6272241;28;20045;-73
2024/01/17 05:30:58;;;;;;;14.07;6.00;;;;;;;-1.71;100.00;99508.13;6274054;28;20049;-73
2024/01/17 05:33:59;;;;;;;13.60;7.57;;;;;;;-1.89;100.00;99502.53;6271628;28;20049;-68
2024/01/17 05:37:02;;;;;;;10.27;5.70;;;;;;;-1.86;100.00;99499.06;6272526;28;20053;-69
2024/01/17 05:40:04;;;;;;;7.68;4.30;;;;;;;-1.92;100.00;99487.22;6272396;28;20499;-68
2024/01/17 05:43:06;;;;;;;8.88;3.85;;;;;;;-1.78;100.00;99488.69;6271320;28;20480;-68
2024/01/17 05:46:07;;;;;;;11.85;4.63;;;;;;;-1.84;100.00;99492.19;6273184;28;20053;-73
2024/01/17 05:49:09;;;;;;;8.70;4.77;;;;;;;-1.88;100.00;99482.91;6271586;28;20060;-74
2024/01/17 05:52:10;;;;;;;10.63;4.70;;;;;;;-1.91;100.00;99475.31;6273014;28;20317;-74
2024/01/17 05:55:12;;;;;;;9.30;5.30;;;;;;;-1.91;100.00;99465.06;6270258;28;20083;-73
2024/01/17 05:58:13;;;;;;;8.25;4.03;;;;;;;-1.90;100.00;99459.91;6272723;28;20045;-73
2024/01/17 06:01:13;;;;;;;14.20;5.60;;;;;;;-1.92;100.00;99465.94;6271424;28;20514;-74
2024/01/17 06:04:14;;;;;;;10.15;5.93;;;;;;;-1.91;100.00;99460.78;6272154;28;20053;-74
2024/01/17 06:07:16;;;;;;;10.63;4.88;;;;;;;-1.94;100.00;99458.28;6270995;28;20057;-73
2024/01/17 06:10:17;;;;;;;8.65;4.88;;;;;;;-1.93;99.89;99454.03;6272249;28;20049;-74
2024/01/17 06:13:18;;;;;;;8.98;4.80;;;;;;;-1.94;100.00;99452.34;6271191;28;20403;-74
2024/01/17 06:16:19;;;;;;;14.90;4.90;;;;;;;-1.92;100.00;99445.47;6269728;28;20083;-74
2024/01/17 06:19:20;;;;;;;6.88;3.95;;;;;;;-1.95;100.00;99448.94;6270528;28;20388;-74
2024/01/17 06:22:21;;;;;;;12.27;4.55;;;;;;;-1.90;100.00;99453.97;6271868;28;20053;-74
2024/01/17 06:25:22;;;;;;;5.88;3.67;;;;;;;-1.88;100.00;99449.66;6271937;28;20514;-74
2024/01/17 06:28:23;;;;;;;10.15;4.78;;;;;;;-1.86;100.00;99450.47;6267624;28;20083;-74
2024/01/17 06:31:25;;;;;;;9.63;4.35;;;;;;;-1.82;100.00;99458.03;6270409;28;20053;-74
2024/01/17 06:34:26;;;;;;;10.85;4.55;;;;;;;-1.73;99.33;99456.16;6269134;28;20131;-73
2024/01/17 06:37:26;;;;;;;7.72;4.70;;;;;;;-1.65;98.96;99467.09;6270249;28;20052;-73
2024/01/17 06:40:27;;;;;;;26.60;6.15;;;;;;;-1.59;98.23;99478.91;6270612;28;20049;-73
2024/01/17 06:43:28;;;;;;;16.00;7.47;;;;;;;-1.57;97.22;99472.88;6269343;28;20053;-74
2024/01/17 06:46:31;;;;;;;14.48;7.80;;;;;;;-1.49;97.25;99480.41;6270193;28;20053;-74
2024/01/17 06:49:32;;;;;;;16.73;7.18;;;;;;;-1.43;96.33;99477.72;6270226;28;20040;-73
2024/01/17 06:52:33;;;;;;;11.95;7.18;;;;;;;-1.35;96.40;99468.16;6271658;28;20107;-74
2024/01/17 06:55:34;;;;;;;8.15;5.13;;;;;;;-1.34;95.85;99471.56;6270173;28;20049;-73
2024/01/17 06:58:35;;;;;;;9.93;5.10;;;;;;;-1.33;94.71;99463.03;6270277;28;20041;-74
2024/01/17 07:01:37;;;;;;;10.18;5.20;;;;;;;-1.26;94.51;99450.03;6271129;28;20044;-74
2024/01/17 07:04:41;;;;;;;8.98;5.32;;;;;;;-1.16;94.46;99457.53;6270063;28;20131;-74
2024/01/17 07:07:42;;;;;;;7.43;4.35;;;;;;;-1.14;93.88;99443.81;6269864;28;20407;-74
2024/01/17 07:10:46;;;;;;;10.32;4.50;;;;;;;-1.09;94.21;99444.56;6270973;28;20056;-74
2024/01/17 07:13:49;;;;;;;7.65;4.88;;;;;;;-0.95;93.91;99444.22;6271096;28;20488;-68
2024/01/17 07:16:50;;;;;;;8.15;3.88;;;;;;;-0.93;93.28;99432.22;6271016;28;20048;-68
2024/01/17 07:19:51;;;;;;;7.57;3.80;;;;;;;-0.91;92.62;99424.50;6269674;28;20411;-68
2024/01/17 07:22:52;;;;;;;9.35;5.20;;;;;;;-0.90;92.93;99436.44;6269749;28;20056;-68
2024/01/17 07:25:53;;;;;;;5.82;3.72;;;;;;;-0.82;93.05;99429.41;6270664;28;20460;-68
2024/01/17 07:28:54;;;;;;;9.10;4.32;;;;;;;-0.69;92.36;99430.78;6269755;28;20049;-68
2024/01/17 07:31:55;;;;;;;9.10;5.18;;;;;;;-0.73;92.10;99423.22;6270617;28;20415;-69
2024/01/17 07:34:56;;;;;;;15.50;5.82;;;;;;;-0.63;92.25;99422.94;6270902;28;20049;-68
2024/01/17 07:37:58;;;;;;;7.70;4.55;;;;;;;-0.59;91.39;99425.44;6270459;28;20131;-68
2024/01/17 07:40:59;;;;;;;8.35;4.53;;;;;;;-0.47;92.09;99415.72;6269438;28;20393;-68
2024/01/17 07:43:59;;;;;;;11.63;5.28;;;;;;;-0.28;90.55;99408.34;6269490;28;20049;-73
2024/01/17 07:47:00;;;;;;;8.07;4.68;;;;;;;-0.11;89.96;99405.31;6270829;28;20131;-73
2024/01/17 07:50:01;;;;;;;8.05;4.60;;;;;;;-0.04;89.50;99403.47;6271261;28;20055;-69
2024/01/17 07:53:02;;;;;;;11.20;5.18;;;;;;;0.06;88.34;99407.41;6275353;28;20131;-68
2024/01/17 07:56:04;;;;;;;5.57;3.67;;;;;;;0.19;87.54;99405.38;6274270;28;20483;-68
2024/01/17 07:59:04;;;;;;;10.87;4.87;;;;;;;0.39;85.67;99402.19;6274460;28;20052;-74
2024/01/17 08:02:08;;;;;;;16.02;5.22;;;;;;;0.49;84.12;99411.28;6274027;28;20278;-73
2024/01/17 08:05:12;;;;;;;11.38;5.78;;;;;;;0.52;82.62;99400.94;6273676;28;20057;-73
2024/01/17 08:08:12;;;;;;;13.82;5.95;;;;;;;0.59;82.04;99396.47;6273864;28;20045;-73
2024/01/17 08:11:13;;;;;;;10.07;5.88;;;;;;;0.55;82.15;99398.28;6274926;28;20052;-73
2024/01/17 08:14:16;;;;;;;9.50;5.50;;;;;;;0.60;81.87;99400.72;6275254;28;20053;-73
2024/01/17 08:17:17;;;;;;;12.10;4.80;;;;;;;0.67;81.92;99398.81;6275090;28;20279;-73
2024/01/17 08:20:18;;;;;;;7.15;4.13;;;;;;;0.76;80.67;99394.22;6273762;28;20101;-74
2024/01/17 08:23:19;;;;;;;38.30;18.42;;;;;;;0.97;80.58;99397.84;6273617;28;20081;-74
2024/01/17 08:26:20;;;;;;;21.05;11.88;;;;;;;1.12;80.43;99393.09;6273728;28;20097;-74
2024/01/17 08:29:21;;;;;;;15.48;7.28;;;;;;;1.22;80.12;99391.06;6273377;28;20323;-74
2024/01/17 08:32:22;;;;;;;18.83;10.43;;;;;;;1.34;78.43;99393.19;6274417;28;20432;-74
2024/01/17 08:35:22;;;;;;;13.38;7.65;;;;;;;1.44;78.14;99383.44;6273507;28;20060;-74
2024/01/17 08:38:23;;;;;;;9.60;5.28;;;;;;;1.57;77.16;99377.00;6274392;28;20041;-74
2024/01/17 08:41:24;;;;;;;8.30;5.65;;;;;;;1.56;77.23;99371.00;6274551;28;20052;-73
2024/01/17 08:44:25;;;;;;;35.40;18.88;;;;;;;1.67;76.57;99375.78;6274378;28;20053;-74
2024/01/17 08:47:26;;;;;;;35.20;16.95;;;;;;;1.72;75.55;99370.47;6273174;28;20055;-74
2024/01/17 08:50:26;;;;;;;16.77;7.53;;;;;;;1.85;75.85;99363.16;6272937;28;20053;-74
2024/01/17 08:53:30;;;;;;;8.65;5.85;;;;;;;1.85;74.98;99363.97;6274291;28;20088;-74
2024/01/17 08:56:31;;;;;;;12.23;5.18;;;;;;;2.10;74.71;99361.38;6274103;28;20079;-74
2024/01/17 08:59:34;;;;;;;13.97;5.40;;;;;;;2.13;74.76;99370.72;6273068;28;20136;-74
2024/01/17 09:02:35;;;;;;;15.20;6.72;;;;;;;1.89;72.47;99357.00;6272983;28;20492;-74
2024/01/17 09:05:36;;;;;;;13.63;6.57;;;;;;;2.04;72.48;99360.75;6272639;28;20055;-74
2024/01/17 09:08:37;;;;;;;17.45;7.78;;;;;;;2.09;73.15;99346.81;6272147;28;20446;-69
2024/01/17 09:11:42;;;;;;;9.68;5.57;;;;;;;2.16;72.58;99344.84;6273449;28;20146;-68
2024/01/17 09:14:43;;;;;;;19.00;9.63;;;;;;;2.21;71.96;99342.94;6273646;28;20139;-74
2024/01/17 09:17:44;;;;;;;15.00;6.15;;;;;;;2.11;71.43;99346.75;6273496;28;20404;-74
2024/01/17 09:20:45;;;;;;;14.23;6.55;;;;;;;2.15;70.96;99348.31;6272384;28;20049;-74
2024/01/17 09:23:46;;;;;;;13.20;6.70;;;;;;;2.14;70.72;99344.91;6273347;28;20056;-74
2024/01/17 09:26:49;;;;;;;12.60;5.28;;;;;;;2.13;69.44;99334.69;6272232;28;20099;-69
2024/01/17 09:29:50;;;;;;;10.48;4.75;;;;;;;2.11;69.42;99327.00;6272971;28;20523;-74
2024/01/17 09:32:51;;;;;;;11.02;6.00;;;;;;;2.08;69.53;99332.28;6273275;28;20114;-74
2024/01/17 09:35:53;;;;;;;12.50;6.57;;;;;;;2.12;69.71;99315.81;6271951;28;20049;-74
2024/01/17 09:38:54;;;;;;;14.73;6.45;;;;;;;2.14;69.57;99305.44;6271699;28;20053;-68
2024/01/17 09:41:58;;;;;;;14.13;7.47;;;;;;;1.99;70.11;99305.13;6272916;28;20483;-69
2024/01/17 09:45:00;;;;;;;14.55;6.70;;;;;;;1.91;69.52;99296.88;6271640;28;20049;-68
2024/01/17 09:48:02;;;;;;;63.05;20.67;;;;;;;1.86;68.63;99287.66;6271606;28;20045;-69
2024/01/17 09:51:04;;;;;;;;;;;;;;;1.94;69.41;99291.63;6272936;28;20056;-68
2024/01/17 09:54:05;;;;;;;61.33;24.33;;;;;;;1.86;67.66;99278.22;6271540;28;19921;-68
2024/01/17 09:57:17;;;;;;;15.25;8.90;;;;;;;2.03;68.63;99280.13;6272549;28;20056;-68
2024/01/17 10:00:18;;;;;;;9.40;5.40;;;;;;;2.13;67.66;99278.06;6271470;28;20495;-68
2024/01/17 10:03:21;;;;;;;9.15;4.97;;;;;;;2.23;66.88;99284.53;6271055;28;20060;-68
2024/01/17 10:06:23;;;;;;;;;;;;;;;2.28;66.78;99271.47;6271757;28;20060;-70
2024/01/17 10:09:24;;;;;;;22.77;9.38;;;;;;;2.29;65.90;99257.72;6270693;28;20367;-69
2024/01/17 10:12:25;;;;;;;18.90;7.78;;;;;;;2.21;65.72;99248.53;6270553;28;20147;-69
2024/01/17 10:15:29;;;;;;;37.72;18.27;;;;;;;2.31;66.56;99243.03;6270865;28;20250;-69
2024/01/17 10:18:32;;;;;;;73.97;33.40;;;;;;;2.44;65.42;99235.66;6270657;28;20480;-68
2024/01/17 10:21:35;;;;;;;110.20;40.05;;;;;;;2.47;65.55;99231.22;6271987;28;20095;-69
2024/01/17 10:24:38;;;;;;;150.50;45.92;;;;;;;2.55;64.62;99228.31;6270520;28;20052;-68
2024/01/17 10:27:41;;;;;;;;;;;;;;;2.52;64.78;99216.41;6272214;28;20446;-69
2024/01/17 10:30:43;;;;;;;259.42;84.07;;;;;;;2.33;64.71;99215.50;6271587;28;20366;-68
2024/01/17 10:33:45;;;;;;;68.15;27.50;;;;;;;2.36;64.87;99210.22;6271268;28;20053;-68
2024/01/17 10:36:46;;;;;;;12.67;6.30;;;;;;;2.42;64.61;99200.50;6271649;28;20190;-69
2024/01/17 10:40:05;;;;;;;9.52;4.95;;;;;;;2.56;64.13;99201.66;6270525;28;20403;-69
2024/01/17 10:43:09;;;;;;;10.02;5.63;;;;;;;2.55;64.69;99187.09;6271415;28;20049;-69
2024/01/17 10:46:10;;;;;;;25.90;6.00;;;;;;;2.49;63.89;99179.63;6271802;28;20053;-69
2024/01/17 10:49:11;;;;;;;13.38;6.50;;;;;;;2.42;64.14;99181.63;6270249;28;20076;-67
2024/01/17 10:52:16;;;;;;;13.52;7.85;;;;;;;2.55;63.90;99171.66;6271585;28;20084;-68
2024/01/17 10:55:21;;;;;;;15.73;8.82;;;;;;;2.65;64.55;99162.63;6271398;28;20135;-68
2024/01/17 10:58:22;;;;;;;17.88;8.18;;;;;;;2.59;63.97;99156.03;6270034;28;20103;-67
2024/01/17 11:01:33;;;;;;;14.32;7.22;;;;;;;2.51;63.97;99150.38;6271320;28;20049;-67
2024/01/17 11:04:38;;;;;;;14.45;6.95;;;;;;;2.58;64.58;99143.22;6271407;28;20059;-67
2024/01/17 11:07:40;;;;;;;14.50;6.05;;;;;;;2.61;66.54;99137.91;6270829;28;20504;-68
2024/01/17 11:10:43;;;;;;;;;;;;;;;2.69;67.64;99125.53;6270247;28;20049;-68
2024/01/17 11:13:45;;;;;;;13.93;6.03;;;;;;;2.71;68.49;99103.13;6270986;28;20291;-68
2024/01/17 11:16:48;;;;;;;11.27;4.90;;;;;;;2.58;69.72;99091.69;6270864;28;20104;-68
2024/01/17 11:19:51;;;;;;;13.15;6.35;;;;;;;2.72;70.47;99075.63;6271177;28;20041;-73
2024/01/17 11:22:56;;;;;;;;;;;;;;;2.71;71.29;99073.97;6270459;28;20110;-73
2024/01/17 11:26:02;;;;;;;11.40;5.07;;;;;;;2.84;71.34;99082.78;6275295;28;19975;-73
2024/01/17 11:29:23;;;;;;;9.57;4.88;;;;;;;2.87;70.36;99066.38;6274758;28;20336;-73
2024/01/17 11:32:42;;;;;;;13.38;5.60;;;;;;;3.05;70.16;99062.13;6276059;28;20056;-73
2024/01/17 11:35:46;;;;;;;10.35;5.65;;;;;;;3.09;70.48;99056.78;6275841;28;20060;-73
2024/01/17 11:38:47;;;;;;;16.63;7.25;;;;;;;3.05;70.26;99057.81;6274662;28;20557;-73
2024/01/17 11:41:51;;;;;;;10.93;5.93;;;;;;;3.09;70.11;99050.75;6274678;28;20053;-73
2024/01/17 11:44:53;;;;;;;11.55;6.07;;;;;;;3.08;69.39;99039.63;6275909;28;20068;-73
2024/01/17 11:48:10;;;;;;;13.25;5.95;;;;;;;3.07;69.90;99025.09;6274447;28;20510;-73
2024/01/17 11:51:11;;;;;;;12.48;5.75;;;;;;;3.13;70.78;99023.94;6274561;28;20053;-73
2024/01/17 11:54:13;;;;;;;12.73;6.35;;;;;;;3.11;70.82;99007.72;6274207;28;20103;-73
2024/01/17 11:57:14;;;;;;;11.93;5.63;;;;;;;3.16;71.29;99001.44;6275458;28;20450;-73
2024/01/17 12:00:20;;;;;;;16.67;7.68;;;;;;;3.18;70.55;98989.31;6275399;28;20054;-73
2024/01/17 12:03:30;;;;;;;17.85;7.82;;;;;;;2.99;70.68;98980.78;6274080;28;20053;-73
2024/01/17 12:06:31;;;;;;;10.88;4.63;;;;;;;3.02;70.56;98978.06;6275273;28;20059;-73
2024/01/17 12:09:32;;;;;;;10.77;5.00;;;;;;;3.08;71.33;98964.88;6274816;28;20132;-73
2024/01/17 12:12:33;;;;;;;13.70;5.43;;;;;;;3.09;71.49;98957.97;6273837;28;20071;-73
2024/01/17 12:15:33;;;;;;;15.50;6.90;;;;;;;3.06;71.41;98951.22;6275079;28;20084;-73
2024/01/17 12:18:35;;;;;;;18.08;8.82;;;;;;;3.07;72.15;98957.22;6275102;28;20495;-73
2024/01/17 12:21:37;;;;;;;11.07;5.82;;;;;;;2.91;72.80;98952.81;6274951;28;20474;-73
2024/01/17 12:24:38;;;;;;;21.10;7.57;;;;;;;3.05;73.10;98965.03;6274855;28;20411;-73
2024/01/17 12:27:38;;;;;;;15.25;7.10;;;;;;;3.16;72.77;98960.19;6274737;28;20049;-73
2024/01/17 12:30:41;;;;;;;17.88;9.40;;;;;;;3.34;72.68;98950.75;6274898;28;20053;-73
2024/01/17 12:33:44;;;;;;;20.00;7.93;;;;;;;3.45;72.63;98955.38;6273313;28;20506;-73
2024/01/17 12:36:45;;;;;;;19.30;8.27;;;;;;;3.39;72.30;98953.09;6272767;28;20145;-73
2024/01/17 12:39:45;;;;;;;7.97;4.70;;;;;;;3.31;72.64;98953.44;6273197;28;20434;-73
2024/01/17 12:42:49;;;;;;;5.90;3.58;;;;;;;3.32;73.11;98947.41;6274650;28;20102;-73
2024/01/17 12:45:51;;;;;;;8.40;4.65;;;;;;;3.17;73.86;98936.09;6274296;28;20068;-73
2024/01/17 12:48:58;;;;;;;14.40;6.45;;;;;;;3.21;74.80;98941.91;6273195;28;20045;-73
2024/01/17 12:51:59;;;;;;;95.63;25.38;;;;;;;3.25;73.85;98940.84;6274214;28;20053;-68
2024/01/17 12:55:00;;;;;;;67.63;19.40;;;;;;;3.28;73.53;98939.91;6273962;28;20052;-67
2024/01/17 12:58:01;;;;;;;42.13;15.40;;;;;;;3.28;73.77;98938.16;6272960;28;20045;-68
2024/01/17 13:01:04;;;;;;;27.02;10.52;;;;;;;3.32;74.80;98933.69;6272722;28;20057;-68
2024/01/17 13:04:07;;;;;;;55.97;19.20;;;;;;;3.22;78.43;98913.50;6273802;28;20404;-69
2024/01/17 13:07:08;;;;;;;33.20;11.88;;;;;;;3.06;81.09;98906.59;6273488;28;20053;-68
2024/01/17 13:10:18;;;;;;;22.98;8.77;;;;;;;2.94;82.72;98895.13;6273766;28;20102;-68
2024/01/17 13:13:20;;;;;;;16.67;8.02;;;;;;;2.84;85.63;98899.88;6273547;28;20059;-73
2024/01/17 13:16:21;;;;;;;22.50;10.20;;;;;;;2.91;85.65;98900.44;6272422;28;20576;-73
2024/01/17 13:19:22;;;;;;;20.80;7.85;;;;;;;2.63;85.91;98889.69;6272136;28;20045;-73
2024/01/17 13:22:23;;;;;;;9.85;5.85;;;;;;;2.81;86.50;98900.03;6273336;28;20415;-73
2024/01/17 13:25:24;;;;;;;11.38;5.22;;;;;;;2.88;87.83;98896.25;6273929;28;20131;-73
2024/01/17 13:28:25;;;;;;;17.08;6.15;;;;;;;2.93;87.29;98886.56;6273330;28;20056;-73
2024/01/17 13:31:26;;;;;;;18.42;6.70;;;;;;;2.97;87.09;98877.78;6273793;28;20056;-73
2024/01/17 13:34:26;;;;;;;16.67;7.50;;;;;;;2.96;87.57;98883.00;6273044;28;20136;-73
2024/01/17 13:37:27;;;;;;;11.40;5.65;;;;;;;2.90;88.26;98888.44;6273239;28;20048;-69
2024/01/17 13:40:29;;;;;;;13.23;6.07;;;;;;;2.80;88.86;98876.03;6272921;28;20049;-69
2024/01/17 13:43:32;;;;;;;11.45;6.00;;;;;;;2.81;89.27;98872.53;6271838;28;20410;-68
2024/01/17 13:46:35;;;;;;;11.77;5.50;;;;;;;2.84;90.41;98881.84;6272986;28;20056;-69
2024/01/17 13:49:38;;;;;;;8.55;5.53;;;;;;;2.81;91.28;98867.38;6270373;28;20407;-69
2024/01/17 13:52:46;;;;;;;13.18;5.93;;;;;;;2.68;92.68;98861.16;6272790;28;20060;-68
2024/01/17 13:55:47;;;;;;;13.82;6.70;;;;;;;2.54;92.42;98848.91;6271516;28;20052;-68
2024/01/17 13:58:48;;;;;;;10.52;5.93;;;;;;;2.54;93.31;98833.47;6272731;28;20510;-69
2024/01/17 14:01:49;;;;;;;10.82;5.57;;;;;;;2.37;93.97;98836.03;6272594;28;20414;-68
2024/01/17 14:04:50;;;;;;;13.75;6.75;;;;;;;2.45;94.23;98841.66;6272490;28;20056;-69
2024/01/17 14:07:53;;;;;;;12.23;7.32;;;;;;;2.39;94.50;98832.47;6271021;28;22024;-69
2024/01/17 14:10:55;;;;;;;16.58;7.63;;;;;;;2.40;94.92;98838.44;6271398;28;20049;-69